Time;durP1;ratioP1;P1;durP2;ratioP2;P2;SDS_P1;SDS_P2;PMS_P1;PMS_P2;Temp;Humidity;BMP_temperature;BMP_pressure;BME280_temperature;BME280_humidity;BME280_pressure;Samples;Min_cycle;Max_cycle;Signal;HPM_P1;HPM_P2
2022/04/26 03:38:23;;;;;;;13.23;11.60;;;;;;;;;;5111504;22;20472;-91
2022/04/26 03:40:50;;;;;;;15.73;11.90;;;;;;;;;;5106978;28;20218;-92
2022/04/26 03:43:17;;;;;;;13.77;11.70;;;;;;;;;;5119495;22;20484;-93
2022/04/26 03:45:44;;;;;;;13.60;11.80;;;;;;;;;;5133215;28;20440;-91
2022/04/26 03:48:11;;;;;;;15.03;12.20;;;;;;;;;;5131453;28;20452;-91
2022/04/26 03:50:40;;;;;;;13.10;11.40;;;;;;;;;;5132350;28;20471;-90
2022/04/26 03:53:07;;;;;;;13.17;11.13;;;;;;;;;;5117910;22;20456;-91
2022/04/26 03:55:36;;;;;;;12.07;10.87;;;;;;;;;;5112634;28;20447;-92
2022/04/26 03:58:03;;;;;;;12.87;11.00;;;;;;;;;;5107751;28;20445;-93
2022/04/26 04:00:30;;;;;;;12.37;10.33;;;;;;;;;;5111612;28;20459;-91
2022/04/26 04:02:57;;;;;;;11.33;10.13;;;;;;;;;;5107540;28;20437;-90
2022/04/26 04:05:24;;;;;;;13.20;11.40;;;;;;;;;;5107191;28;20445;-91
2022/04/26 04:07:51;;;;;;;14.17;12.23;;;;;;;;;;5111011;28;20449;-92
2022/04/26 04:10:19;;;;;;;15.33;12.40;;;;;;;;;;5112734;22;20465;-91
2022/04/26 04:12:47;;;;;;;13.57;12.00;;;;;;;;;;5104370;28;20456;-91
2022/04/26 04:15:14;;;;;;;19.63;12.43;;;;;;;;;;5106258;28;20515;-91
2022/04/26 04:17:42;;;;;;;14.10;11.90;;;;;;;;;;5108081;28;20535;-91
2022/04/26 04:20:10;;;;;;;13.93;12.13;;;8.50;99.90;;;;;;5105619;28;20461;-91
2022/04/26 04:22:37;;;;;;;19.00;12.93;;;;;;;;;;5125176;22;20475;-91
2022/04/26 04:25:04;;;;;;;13.70;12.07;;;;;;;;;;5110836;28;20456;-91
2022/04/26 04:27:32;;;;;;;17.23;12.50;;;;;;;;;;5110423;28;20488;-92
2022/04/26 04:30:02;;;;;;;16.50;13.30;;;;;;;;;;5109823;28;20908;-91
2022/04/26 04:32:30;;;;;;;17.10;12.53;;;;;;;;;;5110403;28;20453;-91
2022/04/26 04:37:23;;;;;;;15.50;13.20;;;;;;;;;;5107502;22;20498;-91
2022/04/26 04:39:50;;;;;;;14.67;12.20;;;;;;;;;;5107647;28;20252;-91
2022/04/26 04:42:17;;;;;;;14.30;12.80;;;;;;;;;;5127183;22;20472;-91
2022/04/26 04:44:44;;;;;;;14.20;12.07;;;;;;;;;;5111657;22;20543;-90
2022/04/26 04:47:15;;;;;;;16.07;13.03;;;8.40;99.90;;;;;;5135689;22;20998;-92
2022/04/26 04:49:42;;;;;;;14.03;12.03;;;;;;;;;;5125707;28;20988;-90
2022/04/26 04:52:09;;;;;;;14.70;12.13;;;;;;;;;;5132229;28;20459;-91
2022/04/26 04:54:36;;;;;;;14.63;12.27;;;;;;;;;;5133605;28;20424;-91
2022/04/26 04:57:05;;;;;;;15.77;12.97;;;;;;;;;;5131854;28;20439;-91
2022/04/26 04:59:32;;;;;;;13.33;11.50;;;;;;;;;;5129447;28;20436;-92
2022/04/26 05:01:59;;;;;;;14.30;12.17;;;;;;;;;;5133422;28;20458;-90
2022/04/26 05:04:30;;;;;;;16.50;12.33;;;8.50;99.90;;;;;;5135636;22;20484;-91
2022/04/26 05:06:57;;;;;;;17.13;12.50;;;;;;;;;;5113915;22;20487;-91
2022/04/26 05:09:24;;;;;;;15.73;11.47;;;;;;;;;;5102524;28;20445;-89
2022/04/26 05:11:52;;;;;;;15.33;11.50;;;;;;;;;;5131964;22;20498;-91
2022/04/26 05:14:22;;;;;;;17.23;12.60;;;;;;;;;;5127070;22;20467;-91
2022/04/26 05:16:50;;;;;;;16.40;13.90;;;;;;;;;;5112751;28;20513;-90
2022/04/26 05:19:19;;;;;;;16.27;12.90;;;;;;;;;;5108711;28;20986;-90
2022/04/26 05:21:47;;;;;;;16.00;12.83;;;;;;;;;;5110874;28;21035;-90
2022/04/26 05:27:01;;;;;;;18.33;13.97;;;;;;;;;;5109458;28;20412;-90
2022/04/26 05:29:28;;;;;;;19.13;13.47;;;;;;;;;;5107878;28;20437;-90
2022/04/26 05:31:55;;;;;;;16.60;13.07;;;;;;;;;;5110629;28;20464;-89
2022/04/26 05:37:05;;;;;;;18.13;14.30;;;;;;;;;;5127678;28;20439;-90
2022/04/26 05:39:32;;;;;;;17.37;14.27;;;;;;;;;;5123956;28;20937;-88
2022/04/26 05:41:59;;;;;;;20.03;15.20;;;;;;;;;;5115025;22;20987;-88
2022/04/26 05:44:26;;;;;;;20.13;14.30;;;;;;;;;;5092746;28;20500;-92
2022/04/26 05:46:53;;;;;;;17.80;14.30;;;;;;;;;;5095224;28;20448;-92
2022/04/26 05:49:20;;;;;;;19.70;14.00;;;;;;;;;;5095350;28;20429;-94
2022/04/26 05:51:49;;;;;;;14.17;12.30;;;;;;;;;;5094424;28;20483;-92
2022/04/26 05:54:17;;;;;;;15.27;12.93;;;8.60;99.90;;;;;;5089496;28;20976;-93
2022/04/26 05:56:44;;;;;;;14.40;11.53;;;;;;;;;;5093564;28;20460;-91
2022/04/26 05:59:11;;;;;;;16.10;12.30;;;;;;;;;;5096405;28;20831;-93
2022/04/26 06:01:39;;;;;;;15.50;12.50;;;;;;;;;;5097616;28;20456;-91
2022/04/26 06:04:06;;;;;;;14.43;12.60;;;;;;;;;;5101046;28;20439;-92
2022/04/26 06:06:35;;;;;;;15.67;13.10;;;;;;;;;;5101632;28;20459;-90
2022/04/26 06:09:02;;;;;;;19.17;13.00;;;;;;;;;;5100255;28;20501;-93
2022/04/26 06:11:31;;;;;;;13.83;11.10;;;8.70;99.90;;;;;;5099633;28;20495;-92
2022/04/26 06:14:00;;;;;;;16.80;12.20;;;;;;;;;;5098716;28;20884;-92
2022/04/26 06:16:28;;;;;;;12.80;11.43;;;;;;;;;;5098123;28;20433;-90
2022/04/26 06:18:57;;;;;;;14.07;12.57;;;;;;;;;;5107257;28;20452;-91
2022/04/26 06:21:24;;;;;;;13.43;9.80;;;8.70;99.90;;;;;;5109973;28;20417;-92
2022/04/26 06:23:54;;;;;;;12.10;9.37;;;;;;;;;;5111734;28;20425;-92
2022/04/26 06:26:21;;;;;;;12.10;10.80;;;;;;;;;;5111059;22;20591;-91
2022/04/26 06:28:57;;;;;;;12.67;11.37;;;;;;;;;;5117973;22;20551;-90
2022/04/26 06:31:24;;;;;;;11.53;10.33;;;;;;;;;;5130754;22;20534;-93
2022/04/26 06:33:51;;;;;;;10.73;9.60;;;;;;;;;;5064614;28;20498;-91
2022/04/26 06:36:18;;;;;;;12.47;10.90;;;;;;;;;;5063361;28;20446;-91
2022/04/26 06:38:45;;;;;;;10.07;9.00;;;;;;;;;;5058804;28;20458;-91
2022/04/26 06:41:12;;;;;;;11.40;9.87;;;;;;;;;;5062148;28;20462;-92
2022/04/26 06:43:40;;;;;;;10.90;9.27;;;;;;;;;;5063410;28;20430;-89
2022/04/26 06:46:08;;;;;;;11.10;9.90;;;9.10;99.90;;;;;;5055341;28;20462;-92
2022/04/26 06:48:35;;;;;;;11.63;10.43;;;;;;;;;;5050546;28;20443;-92
2022/04/26 06:51:02;;;;;;;12.80;10.20;;;;;;;;;;5051726;28;20486;-87
2022/04/26 06:53:30;;;;;;;10.07;9.07;;;;;;;;;;5054603;28;20471;-89
2022/04/26 06:55:57;;;;;;;10.30;9.30;;;;;;;;;;5051974;28;20459;-90
2022/04/26 06:58:24;;;;;;;11.30;10.10;;;;;;;;;;5054213;28;20431;-92
2022/04/26 07:00:51;;;;;;;11.53;9.27;;;;;;;;;;5058378;28;20462;-89
2022/04/26 07:03:19;;;;;;;11.03;9.50;;;9.60;99.90;;;;;;5053364;28;20972;-88
2022/04/26 07:05:46;;;;;;;11.17;9.83;;;;;;;;;;5052115;28;20783;-89
2022/04/26 07:08:13;;;;;;;10.00;8.80;;;;;;;;;;5054101;28;20434;-90
2022/04/26 07:10:40;;;;;;;12.13;9.17;;;;;;;;;;5054525;28;20922;-92
2022/04/26 07:13:08;;;;;;;10.53;9.53;;;;;;;;;;5057556;28;20453;-92
2022/04/26 07:15:35;;;;;;;9.83;8.83;;;;;;;;;;5051510;28;20435;-93
2022/04/26 07:18:02;;;;;;;10.00;8.73;;;;;;;;;;5055806;28;20454;-90
2022/04/26 07:20:31;;;;;;;10.80;9.70;;;;;;;;;;5056821;28;20438;-90
2022/04/26 07:22:58;;;;;;;8.60;7.80;;;;;;;;;;5052774;28;20461;-90
2022/04/26 07:25:25;;;;;;;9.10;8.17;;;;;;;;;;5057514;28;20439;-92
2022/04/26 07:27:52;;;;;;;7.73;6.73;;;;;;;;;;5056497;28;20441;-89
2022/04/26 07:30:19;;;;;;;7.37;6.37;;;;;;;;;;5054541;28;20450;-89
2022/04/26 07:35:43;;;;;;;9.27;7.60;;;11.30;99.90;;;;;;5017021;28;20490;-89
2022/04/26 07:38:10;;;;;;;7.20;6.50;;;;;;;;;;5057523;28;20442;-92
2022/04/26 07:40:38;;;;;;;8.40;7.60;;;;;;;;;;5054847;28;20443;-90
2022/04/26 07:43:06;;;;;;;8.50;7.47;;;;;;;;;;5059944;28;20489;-88
2022/04/26 07:45:33;;;;;;;8.10;7.30;;;;;;;;;;5054845;28;20446;-89
2022/04/26 07:48:00;;;;;;;9.03;8.23;;;;;;;;;;5054750;28;20446;-88
2022/04/26 07:50:30;;;;;;;8.93;8.00;;;10.50;99.90;;;;;;5051820;28;20438;-89
2022/04/26 07:53:00;;;;;;;8.80;7.90;;;10.50;99.90;;;;;;5054063;28;20494;-90
2022/04/26 07:55:28;;;;;;;8.33;7.53;;;10.50;99.90;;;;;;5046567;28;20961;-90
2022/04/26 07:57:58;;;;;;;10.87;7.90;;;;;;;;;;5054410;28;20456;-91
2022/04/26 08:00:25;;;;;;;9.30;8.17;;;;;;;;;;5053777;28;20447;-93
2022/04/26 08:02:52;;;;;;;6.93;6.23;;;;;;;;;;5054451;28;20439;-92
2022/04/26 08:05:20;;;;;;;7.70;7.00;;;;;;;;;;5055580;28;20438;-86
2022/04/26 08:07:48;;;;;;;7.53;6.73;;;;;;;;;;5052891;28;20819;-91
2022/04/26 08:10:16;;;;;;;6.67;5.97;;;10.30;99.90;;;;;;5049295;28;20930;-89
2022/04/26 08:12:44;;;;;;;8.07;7.27;;;10.20;99.90;;;;;;5033976;28;20487;-88
2022/04/26 08:15:13;;;;;;;9.93;6.90;;;;;;;;;;5035295;28;20455;-87
2022/04/26 08:17:41;;;;;;;8.10;7.30;;;;;;;;;;5036181;28;20456;-89
2022/04/26 08:20:10;;;;;;;9.80;7.40;;;10.10;99.90;;;;;;5034657;28;20478;-88
2022/04/26 08:22:37;;;;;;;7.50;6.80;;;;;;;;;;5033715;28;20510;-90
2022/04/26 08:27:51;;;;;;;8.23;7.37;;;;;;;;;;5036399;28;20531;-90
2022/04/26 08:30:18;;;;;;;8.10;6.97;;;;;;;;;;5034161;28;20459;-87
2022/04/26 08:32:48;;;;;;;8.60;7.70;;;10.50;99.90;;;;;;5035227;28;20509;-91
2022/04/26 08:35:18;;;;;;;7.73;7.03;;;10.70;99.90;;;;;;5034194;28;20975;-88
2022/04/26 08:37:45;;;;;;;10.17;7.73;;;;;;;;;;5035194;28;20451;-86
2022/04/26 08:40:12;;;;;;;8.90;6.60;;;;;;;;;;5035264;28;20962;-87
2022/04/26 08:42:41;;;;;;;9.93;7.80;;;11.30;99.90;;;;;;5035077;28;20462;-86
2022/04/26 08:45:11;;;;;;;7.50;6.20;;;11.30;99.90;;;;;;5027235;28;20827;-86
2022/04/26 08:53:09;;;;;;;7.10;6.40;;;;;;;;;;5035531;28;20492;-90
2022/04/26 08:55:42;;;;;;;7.33;6.63;;;11.40;99.90;;;;;;5032297;28;20452;-89
2022/04/26 08:58:11;;;;;;;7.47;6.40;;;;;;;;;;5032237;28;20447;-88
2022/04/26 09:00:40;;;;;;;8.03;6.60;;;10.90;99.90;;;;;;5035312;28;20812;-88
2022/04/26 09:03:08;;;;;;;5.87;5.17;;;;;;;;;;5035835;28;20455;-90
2022/04/26 09:05:36;;;;;;;7.47;6.73;;;;;;;;;;5031086;28;20470;-89
2022/04/26 09:08:20;;;;;;;8.93;6.93;;;10.50;99.90;;;;;;5036749;28;20444;-89
2022/04/26 09:10:48;;;;;;;5.80;5.20;;;10.50;99.90;;;;;;5035801;28;20467;-91
2022/04/26 09:13:17;;;;;;;11.50;6.90;;;;;;;;;;5035029;28;20866;-90
2022/04/26 09:15:48;;;;;;;7.97;6.83;;;10.70;99.90;;;;;;5035508;28;20452;-94
2022/04/26 09:18:21;;;;;;;7.87;7.13;;;10.90;99.90;;;;;;5034887;28;20443;-86
2022/04/26 09:20:49;;;;;;;7.10;6.40;;;10.90;99.90;;;;;;5033330;28;20451;-87
2022/04/26 09:23:18;;;;;;;7.50;6.70;;;11.10;99.90;;;;;;5034757;28;20463;-88
2022/04/26 09:25:46;;;;;;;7.80;7.00;;;11.70;99.90;;;;;;5034651;28;20462;-89
2022/04/26 09:28:21;;;;;;;10.53;7.60;;;11.80;99.90;;;;;;4997462;28;20487;-88
2022/04/26 09:30:51;;;;;;;7.93;6.23;;;;;;;;;;5015186;28;20520;-89
2022/04/26 09:33:38;;;;;;;9.00;7.10;;;12.40;99.90;;;;;;5054487;28;20538;-90
2022/04/26 09:36:06;;;;;;;7.97;6.60;;;12.40;99.90;;;;;;5056251;28;20485;-91
2022/04/26 09:38:34;;;;;;;8.33;6.70;;;;;;;;;;5055141;28;20454;-90
2022/04/26 09:41:02;;;;;;;6.70;5.90;;;12.70;99.90;;;;;;5059451;28;20560;-89
2022/04/26 09:43:29;;;;;;;6.60;5.87;;;;;;;;;;5055037;28;20946;-89
2022/04/26 09:45:59;;;;;;;7.37;5.90;;;12.70;99.90;;;;;;5054448;28;20451;-91
2022/04/26 09:48:28;;;;;;;5.77;5.23;;;12.40;99.90;;;;;;5018659;28;20526;-88
2022/04/26 09:50:56;;;;;;;5.57;4.57;;;;;;;;;;5013895;28;20453;-89
2022/04/26 09:53:23;;;;;;;7.17;6.40;;;;;;;;;;5015226;28;20591;-88
2022/04/26 09:55:51;;;;;;;8.20;6.80;;;12.30;99.90;;;;;;5014915;28;20547;-91
2022/04/26 09:58:20;;;;;;;5.77;4.77;;;12.40;99.90;;;;;;5014786;28;20449;-92
2022/04/26 10:00:49;;;;;;;7.87;6.90;;;13.10;99.90;;;;;;5014184;28;20460;-89
2022/04/26 10:03:21;;;;;;;5.70;5.20;;;;;;;;;;5014244;28;20783;-90
2022/04/26 10:05:52;;;;;;;6.30;5.13;;;13.60;99.90;;;;;;5017850;28;20460;-89
2022/04/26 10:08:21;;;;;;;8.03;4.70;;;12.90;99.90;;;;;;5014315;28;20448;-87
2022/04/26 10:10:48;;;;;;;6.43;5.27;;;;;;;;;;5013693;28;20507;-89
2022/04/26 10:13:32;;;;;;;8.03;4.80;;;;;;;;;;5015856;28;20561;-92
2022/04/26 10:16:01;;;;;;;4.57;4.17;;;12.10;99.90;;;;;;5017315;28;20815;-88
2022/04/26 10:18:35;;;;;;;5.57;4.40;;;12.10;99.90;;;;;;5013952;28;20928;-89
2022/04/26 10:21:04;;;;;;;6.20;5.33;;;11.70;99.90;;;;;;5013092;28;20452;-89
2022/04/26 10:24:05;;;;;;;5.70;5.07;;;12.10;99.90;;;;;;5013732;28;20518;-88
2022/04/26 10:26:33;;;;;;;7.73;4.90;;;;;;;;;;5022460;28;20452;-92
2022/04/26 10:29:46;;;;;;;5.47;4.97;;;14.00;99.90;;;;;;5031673;28;20452;-95
2022/04/26 10:33:02;;;;;;;5.63;5.13;;;15.30;99.90;;;;;;5042467;28;20514;-94
2022/04/26 10:35:32;;;;;;;5.50;5.00;;;;;;;;;;5024798;28;20451;-92
2022/04/26 10:38:14;;;;;;;5.70;5.20;;;14.30;99.40;;;;;;5036809;28;20549;-91
2022/04/26 10:43:31;;;;;;;6.60;5.10;;;;;;;;;;5061803;23;20505;-91
2022/04/26 10:46:10;;;;;;;5.97;5.47;;;;;;;;;;5053806;28;20967;-91
2022/04/26 10:48:37;;;;;;;6.33;5.50;;;;;;;;;;5053050;28;20442;-91
2022/04/26 10:51:36;;;;;;;5.90;5.30;;;14.30;99.90;;;;;;5052216;28;20469;-88
2022/04/26 10:54:03;;;;;;;5.10;4.60;;;;;;;;;;5048878;28;20458;-89
2022/04/26 10:56:30;;;;;;;7.10;4.53;;;;;;;;;;5053807;28;20455;-89
2022/04/26 10:58:58;;;;;;;5.40;4.80;;;;;;;;;;5050246;28;20462;-89
2022/04/26 11:01:25;;;;;;;5.57;4.47;;;;;;;;;;5053390;28;20442;-90
2022/04/26 11:03:54;;;;;;;4.43;4.03;;;;;;;;;;5054533;28;20447;-90
2022/04/26 11:06:39;;;;;;;4.43;4.00;;;13.20;99.90;;;;;;5060871;28;20862;-90
2022/04/26 11:09:08;;;;;;;4.87;4.07;;;13.80;99.30;;;;;;5061442;28;20442;-88
2022/04/26 11:11:47;;;;;;;4.97;4.47;;;15.10;98.20;;;;;;5055304;28;20454;-88
2022/04/26 11:14:15;;;;;;;8.10;3.83;;;;;;;;;;5053120;28;20465;-87
2022/04/26 11:16:55;;;;;;;5.73;4.20;;;15.60;99.90;;;;;;5052998;28;20450;-88
2022/04/26 11:19:26;;;;;;;6.03;4.37;;;15.90;99.90;;;;;;5048310;28;20533;-88
2022/04/26 11:21:55;;;;;;;6.63;4.20;;;16.70;95.50;;;;;;5053057;28;20470;-88
2022/04/26 11:29:52;;;;;;;4.00;3.47;;;;;;;;;;5052854;28;20438;-89
2022/04/26 11:32:29;;;;;;;5.70;3.10;;;15.40;99.90;;;;;;5052824;28;20486;-88
2022/04/26 11:34:56;;;;;;;8.60;5.90;;;;;;;;;;5052967;28;20545;-92
2022/04/26 11:37:24;;;;;;;7.80;7.10;;;14.50;99.90;;;;;;5054940;28;20473;-93
2022/04/26 11:39:52;;;;;;;7.27;6.57;;;;;;;;;;5051338;28;20439;-89
2022/04/26 11:42:20;;;;;;;10.53;9.13;;;13.30;99.90;;;;;;5059453;28;20485;-86
2022/04/26 11:44:58;;;;;;;10.00;8.97;;;12.80;99.90;;;;;;5057590;28;20454;-90
2022/04/26 11:47:37;;;;;;;9.03;8.13;;;12.90;99.90;;;;;;5054247;28;20484;-91
2022/04/26 11:52:31;;;;;;;10.20;8.67;;;13.30;99.90;;;;;;5126594;22;20525;-91
2022/04/26 11:54:58;;;;;;;9.00;8.10;;;;;;;;;;5122391;28;20186;-90
2022/04/26 11:57:25;;;;;;;9.37;8.47;;;;;;;;;;5121259;28;20440;-91
2022/04/26 11:59:53;;;;;;;8.67;7.03;;;;;;;;;;5118976;28;20452;-94
2022/04/26 12:02:21;;;;;;;8.57;7.77;;;15.00;99.90;;;;;;5122347;28;20439;-95
2022/04/26 12:04:48;;;;;;;7.70;6.97;;;;;;;;;;5109224;28;20444;-93
2022/04/26 12:07:15;;;;;;;7.93;7.13;;;;;;;;;;5118863;28;20439;-92
2022/04/26 12:09:44;;;;;;;12.00;7.90;;;12.60;99.90;;;;;;5121734;28;20447;-93
2022/04/26 12:12:12;;;;;;;8.70;6.93;;;;;;;;;;5121423;28;20443;-93
2022/04/26 12:14:42;;;;;;;8.47;7.67;;;12.00;99.90;;;;;;5121315;28;20519;-93
2022/04/26 12:17:18;;;;;;;8.13;7.40;;;11.90;99.90;;;;;;5119299;28;20454;-95
2022/04/26 12:19:50;;;;;;;7.90;7.20;;;;;;;;;;5115204;28;20439;-88
2022/04/26 12:22:25;;;;;;;8.40;7.30;;;13.50;99.90;;;;;;5115925;28;20543;-88
2022/04/26 12:24:53;;;;;;;10.80;7.23;;;12.30;99.90;;;;;;5121125;28;20564;-89
2022/04/26 12:27:22;;;;;;;8.90;8.00;;;12.30;99.90;;;;;;5120422;28;20440;-90
2022/04/26 12:29:51;;;;;;;7.57;6.80;;;12.10;99.90;;;;;;5118235;28;20444;-88
2022/04/26 12:32:20;;;;;;;6.80;6.10;;;12.00;99.90;;;;;;5117990;28;20436;-90
2022/04/26 12:34:49;;;;;;;13.00;7.90;;;11.70;99.90;;;;;;5116704;28;20448;-88
2022/04/26 12:37:21;;;;;;;9.87;8.03;;;11.00;99.90;;;;;;5118297;28;20451;-91
2022/04/26 12:39:50;;;;;;;10.03;7.57;;;10.70;99.90;;;;;;5117339;28;20444;-91
2022/04/26 12:42:29;;;;;;;7.10;6.20;;;10.30;99.90;;;;;;5117777;28;20599;-92
2022/04/26 12:44:58;;;;;;;7.83;6.70;;;10.00;99.90;;;;;;5117265;28;20440;-87
2022/04/26 12:50:31;;;;;;;8.07;6.70;;;9.50;99.90;;;;;;5117448;28;20463;-90
2022/04/26 12:53:00;;;;;;;10.37;5.90;;;9.30;99.90;;;;;;5115997;28;21005;-91
2022/04/26 12:55:29;;;;;;;5.00;4.13;;;9.10;99.90;;;;;;5116876;28;20551;-95
2022/04/26 12:57:59;;;;;;;4.63;4.13;;;9.10;99.90;;;;;;5120080;28;20438;-91
2022/04/26 13:00:27;;;;;;;7.20;5.30;;;8.90;99.90;;;;;;5118861;28;20464;-92
2022/04/26 13:02:56;;;;;;;7.93;5.43;;;9.00;99.90;;;;;;5122334;28;20458;-93
2022/04/26 13:05:23;;;;;;;13.50;5.10;;;;;;;;;;5118908;22;20488;-88
2022/04/26 13:07:52;;;;;;;4.63;3.97;;;;;;;;;;5097688;28;20449;-89
2022/04/26 13:10:19;;;;;;;5.77;4.67;;;9.40;99.90;;;;;;5097824;28;20513;-92
2022/04/26 13:12:47;;;;;;;4.90;4.40;;;;;;;;;;5099423;28;20967;-89
2022/04/26 13:15:16;;;;;;;4.17;3.77;;;10.60;99.90;;;;;;5106450;28;20437;-92
2022/04/26 13:17:44;;;;;;;5.03;3.83;;;;;;;;;;5112027;28;20433;-89
2022/04/26 13:20:15;;;;;;;9.00;4.63;;;11.10;99.90;;;;;;5137761;22;20472;-90
2022/04/26 13:22:42;;;;;;;7.33;4.00;;;;;;;;;;5124458;22;20421;-89
2022/04/26 13:25:32;;;;;;;5.13;4.63;;;12.30;99.90;;;;;;5125943;22;20489;-95
2022/04/26 13:27:59;;;;;;;7.17;4.37;;;;;;;;;;5084061;28;20436;-93
2022/04/26 13:30:28;;;;;;;4.07;3.70;;;;;;;;;;5070911;28;20484;-93
2022/04/26 13:32:59;;;;;;;4.50;4.10;;;;;;;;;;5080679;28;20477;-95
2022/04/26 13:35:27;;;;;;;3.10;2.80;;;;;;;;;;5076730;28;20446;-94
2022/04/26 13:37:55;;;;;;;3.60;3.17;;;;;;;;;;5079383;28;20544;-95
2022/04/26 13:40:22;;;;;;;3.20;3.00;;;;;;;;;;5082498;28;20513;-94
2022/04/26 13:42:50;;;;;;;5.53;3.50;;;;;;;;;;5080048;28;20508;-90
2022/04/26 13:45:17;;;;;;;2.70;2.27;;;;;;;;;;5075418;28;20445;-91
2022/04/26 13:47:45;;;;;;;2.50;2.30;;;13.50;99.90;;;;;;5073308;28;20503;-92
2022/04/26 13:50:12;;;;;;;3.23;2.93;;;;;;;;;;5067998;28;20470;-88
2022/04/26 13:52:42;;;;;;;2.53;2.33;;;;;;;;;;5074859;28;20442;-93
2022/04/26 13:55:10;;;;;;;3.50;2.83;;;;;;;;;;5082064;28;20445;-90
2022/04/26 13:57:39;;;;;;;1.80;1.70;;;;;;;;;;5076525;28;20446;-92
2022/04/26 14:00:07;;;;;;;2.50;2.30;;;12.40;99.90;;;;;;5079359;28;20472;-88
2022/04/26 14:02:35;;;;;;;4.27;3.40;;;;;;;;;;5077073;28;20456;-93
2022/04/26 14:05:05;;;;;;;2.13;1.37;;;12.30;99.90;;;;;;5085958;28;20460;-92
2022/04/26 14:07:32;;;;;;;2.50;2.30;;;;;;;;;;5092568;22;20473;-90
2022/04/26 14:09:59;;;;;;;2.90;2.47;;;;;;;;;;5103571;28;20440;-92
2022/04/26 14:12:27;;;;;;;2.30;2.10;;;;;;;;;;5102549;28;20452;-95
2022/04/26 14:23:09;;;;;;;2.97;2.40;;;;;;;;;;5113569;28;20465;-91
2022/04/26 14:25:37;;;;;;;4.97;3.10;;;;;;;;;;5109506;28;20456;-92
2022/04/26 14:28:05;;;;;;;2.57;2.37;;;;;;;;;;5110711;28;20458;-92
2022/04/26 14:30:36;;;;;;;3.23;2.80;;;13.30;99.90;;;;;;5119189;22;20464;-91
2022/04/26 14:33:03;;;;;;;2.63;2.43;;;;;;;;;;5112308;28;20479;-90
2022/04/26 14:35:32;;;;;;;2.77;2.53;;;;;;;;;;5136615;22;20499;-90
2022/04/26 14:37:59;;;;;;;2.87;2.43;;;;;;;;;;5106834;28;20444;-93
2022/04/26 14:40:26;;;;;;;2.70;2.37;;;;;;;;;;5116122;22;20493;-92
2022/04/26 14:42:54;;;;;;;3.83;2.60;;;;;;;;;;5112423;22;20494;-92
2022/04/26 14:45:22;;;;;;;2.13;1.93;;;;;;;;;;5105771;28;20468;-93
2022/04/26 14:47:49;;;;;;;2.77;2.30;;;;;;;;;;5092530;28;20451;-91
2022/04/26 14:50:17;;;;;;;5.23;2.30;;;;;;;;;;5100270;28;20533;-91
2022/04/26 14:52:45;;;;;;;2.63;2.10;;;12.70;99.90;;;;;;5093576;28;20483;-92
2022/04/26 14:55:13;;;;;;;2.90;2.60;;;;;;;;;;5100711;28;20512;-92
2022/04/26 14:57:40;;;;;;;2.77;2.57;;;;;;;;;;5105436;28;20448;-91
2022/04/26 15:00:09;;;;;;;2.10;1.47;;;13.30;99.90;;;;;;5100477;28;20494;-91
2022/04/26 15:02:39;;;;;;;2.90;1.90;;;;;;;;;;5098993;28;20453;-91
2022/04/26 15:05:08;;;;;;;4.80;1.53;;;14.10;99.90;;;;;;5102482;28;20449;-94
2022/04/26 15:10:18;;;;;;;3.03;2.33;;;13.90;96.90;;;;;;5096250;28;20528;-91
2022/04/26 15:18:14;;;;;;;2.83;2.00;;;;;;;;;;5097034;28;20440;-90
2022/04/26 15:20:42;;;;;;;3.50;2.50;;;;;;;;;;5101975;28;20453;-91
2022/04/26 15:23:12;;;;;;;3.10;2.80;;;;;;;;;;5097736;28;20527;-92
2022/04/26 15:25:40;;;;;;;3.03;2.63;;;;;;;;;;5100150;28;20456;-93
2022/04/26 15:28:08;;;;;;;3.33;3.00;;;;;;;;;;5101845;28;20432;-90
2022/04/26 15:30:42;;;;;;;3.10;2.80;;;12.00;99.90;;;;;;5097481;28;20468;-92
2022/04/26 15:33:09;;;;;;;4.27;2.97;;;;;;;;;;5094975;28;20490;-90
2022/04/26 15:35:38;;;;;;;3.87;3.47;;;;;;;;;;5099151;28;20955;-90
2022/04/26 15:38:05;;;;;;;3.30;2.70;;;;;;;;;;5101584;28;20966;-91
2022/04/26 15:40:34;;;;;;;3.20;2.90;;;;;;;;;;5097764;28;20780;-90
2022/04/26 15:43:05;;;;;;;3.40;2.70;;;11.50;99.90;;;;;;5100075;28;20460;-90
2022/04/26 15:45:36;;;;;;;2.90;2.60;;;11.50;99.90;;;;;;5095379;28;20503;-92
2022/04/26 15:48:03;;;;;;;3.23;2.93;;;;;;;;;;5098947;28;20460;-91
2022/04/26 15:50:30;;;;;;;4.10;3.70;;;;;;;;;;5099020;28;20979;-90
2022/04/26 15:52:57;;;;;;;4.33;3.93;;;;;;;;;;5095821;28;20461;-90
2022/04/26 15:55:24;;;;;;;3.93;3.47;;;;;;;;;;5097464;28;20492;-91
2022/04/26 15:57:54;;;;;;;3.70;3.40;;;;;;;;;;5100760;28;20433;-92
2022/04/26 16:00:22;;;;;;;3.53;3.23;;;10.60;99.90;;;;;;5101700;28;20444;-93
2022/04/26 16:02:51;;;;;;;4.73;3.13;;;;;;;;;;5101206;28;20446;-91
2022/04/26 16:05:18;;;;;;;5.10;3.30;;;;;;;;;;5105230;28;20492;-89
2022/04/26 16:07:45;;;;;;;3.23;2.93;;;;;;;;;;5104675;28;20440;-89
2022/04/26 16:21:13;;;;;;;3.20;2.90;;;;;;;;;;5084556;28;20576;-90
2022/04/26 16:23:40;;;;;;;11.37;10.27;;;;;;;;;;5084849;28;20449;-90
2022/04/26 16:26:08;;;;;;;5.00;3.67;;;;;;;;;;5083469;28;20480;-89
2022/04/26 16:28:37;;;;;;;6.10;4.90;;;12.00;99.90;;;;;;5071130;28;20460;-89
2022/04/26 16:31:06;;;;;;;7.07;6.10;;;11.90;99.90;;;;;;5063691;28;20507;-90
2022/04/26 16:33:33;;;;;;;2.80;2.37;;;;;;;;;;5065316;28;20477;-89
2022/04/26 16:36:00;;;;;;;3.27;2.70;;;;;;;;;;5063873;28;20564;-89
2022/04/26 16:38:27;;;;;;;3.87;2.53;;;;;;;;;;5067202;28;20473;-89
2022/04/26 16:40:56;;;;;;;4.30;3.90;;;;;;;;;;5069473;28;20453;-90
2022/04/26 16:43:24;;;;;;;3.30;3.00;;;;;;;;;;5062067;28;20977;-94
2022/04/26 16:45:51;;;;;;;2.27;2.03;;;;;;;;;;5064977;28;20473;-95
2022/04/26 16:48:20;;;;;;;2.93;2.40;;;11.70;99.90;;;;;;5062252;28;20442;-91
2022/04/26 16:50:47;;;;;;;2.50;2.13;;;;;;;;;;5060433;28;21017;-91
2022/04/26 16:53:14;;;;;;;5.40;4.90;;;;;;;;;;5056558;28;20463;-90
2022/04/26 16:55:41;;;;;;;14.43;12.53;;;;;;;;;;5056985;28;20471;-91
2022/04/26 16:58:09;;;;;;;3.93;3.60;;;;;;;;;;5059462;28;20442;-91
2022/04/26 17:00:36;;;;;;;3.93;3.53;;;;;;;;;;5063599;28;20447;-91
2022/04/26 17:03:04;;;;;;;3.73;3.37;;;;;;;;;;5068292;28;20486;-92
2022/04/26 17:05:32;;;;;;;3.13;2.83;;;11.00;99.90;;;;;;5067497;28;20517;-93
2022/04/26 17:07:59;;;;;;;4.60;4.03;;;;;;;;;;5056268;28;20525;-90
2022/04/26 17:10:26;;;;;;;5.03;4.03;;;11.00;99.90;;;;;;5062249;28;20471;-90
2022/04/26 17:12:53;;;;;;;8.77;5.60;;;;;;;;;;5066249;28;20447;-91
2022/04/26 17:15:40;;;;;;;6.67;4.83;;;10.70;99.90;;;;;;5075296;22;20496;-89
2022/04/26 17:18:08;;;;;;;4.40;3.37;;;10.50;99.90;;;;;;5086497;28;20452;-92
2022/04/26 17:20:37;;;;;;;8.30;3.80;;;;;;;;;;5079948;28;20462;-89
2022/04/26 17:23:23;;;;;;;4.00;2.30;;;10.40;99.90;;;;;;5093485;22;20443;-92
2022/04/26 17:25:51;;;;;;;3.07;2.87;;;;;;;;;;5085819;22;20505;-92
2022/04/26 17:28:18;;;;;;;2.80;2.60;;;;;;;;;;5073056;22;21566;-91
2022/04/26 17:30:46;;;;;;;6.57;3.57;;;;;;;;;;5066926;28;20459;-95
2022/04/26 17:33:13;;;;;;;4.50;3.40;;;;;;;;;;5078949;22;20482;-90
2022/04/26 17:35:42;;;;;;;4.97;3.50;;;10.10;99.90;;;;;;5074622;28;20485;-89
2022/04/26 17:38:09;;;;;;;3.93;3.50;;;;;;;;;;5086547;22;20486;-89
2022/04/26 17:40:36;;;;;;;11.57;7.77;;;;;;;;;;5086762;28;20460;-88
2022/04/26 17:43:11;;;;;;;16.87;9.23;;;9.80;99.90;;;;;;5077261;28;20454;-89
2022/04/26 17:45:40;;;;;;;16.40;8.80;;;;;;;;;;5079684;28;20463;-89
2022/04/26 17:48:08;;;;;;;13.27;6.77;;;;;;;;;;5079751;28;20790;-89
2022/04/26 17:50:38;;;;;;;13.77;7.27;;;;;;;;;;5075183;28;20452;-89
2022/04/26 17:58:38;;;;;;;25.57;13.50;;;;;;;;;;5078710;28;20534;-89
2022/04/26 18:01:06;;;;;;;19.90;10.67;;;;;;;;;;5075154;28;20450;-88
2022/04/26 18:03:33;;;;;;;9.03;6.03;;;;;;;;;;5086778;22;20486;-89
2022/04/26 18:06:00;;;;;;;10.60;6.97;;;;;;;;;;5054302;28;20462;-89
2022/04/26 18:08:29;;;;;;;6.43;4.50;;;;;;;;;;5052477;28;20587;-87
2022/04/26 18:10:57;;;;;;;13.13;8.23;;;9.40;99.90;;;;;;5055976;28;20938;-87
2022/04/26 18:13:25;;;;;;;7.47;5.03;;;;;;;;;;4991650;28;20449;-88
2022/04/26 18:15:54;;;;;;;6.03;4.50;;;;;;;;;;4990828;28;20492;-87
2022/04/26 18:18:22;;;;;;;2.67;2.47;;;;;;;;;;4993351;28;20446;-88
2022/04/26 18:20:50;;;;;;;3.07;2.77;;;;;;;;;;4993648;28;20448;-87
2022/04/26 18:23:17;;;;;;;5.70;4.23;;;;;;;;;;4997380;28;20465;-88
2022/04/26 18:28:31;;;;;;;4.40;3.27;;;;;;;;;;4996618;28;20539;-88
2022/04/26 18:30:59;;;;;;;9.80;6.50;;;;;;;;;;4978783;28;20881;-89
2022/04/26 18:33:26;;;;;;;4.20;3.63;;;;;;;;;;5059104;28;20811;-88
2022/04/26 18:35:53;;;;;;;3.40;3.10;;;;;;;;;;5051774;28;20498;-88
2022/04/26 18:38:21;;;;;;;4.83;2.60;;;;;;;;;;5055898;28;20454;-89
2022/04/26 18:40:55;;;;;;;9.63;6.83;;;9.40;99.90;;;;;;5058934;28;20565;-89
2022/04/26 18:43:22;;;;;;;3.10;2.53;;;;;;;;;;5053200;28;20446;-89
2022/04/26 18:45:50;;;;;;;2.87;2.67;;;;;;;;;;5055019;28;20466;-88
2022/04/26 18:48:17;;;;;;;3.40;3.00;;;;;;;;;;5058260;28;20442;-88
2022/04/26 18:50:45;;;;;;;3.40;2.60;;;;;;;;;;5052392;28;20453;-88
2022/04/26 18:53:14;;;;;;;3.30;2.87;;;;;;;;;;5053330;28;20454;-88